sensor_id;sensor_type;location;lat;lon;timestamp;P1;durP1;ratioP1;P2;durP2;ratioP2
20229;SDS011;12195;55.790;37.572;2023-08-01T00:00:54;22.65;;;6.67;;
20229;SDS011;12195;55.790;37.572;2023-08-01T00:03:28;14.03;;;5.80;;
20229;SDS011;12195;55.790;37.572;2023-08-01T00:06:10;14.45;;;5.40;;
20229;SDS011;12195;55.790;37.572;2023-08-01T00:08:53;16.55;;;6.17;;
20229;SDS011;12195;55.790;37.572;2023-08-01T00:11:27;18.77;;;5.67;;
20229;SDS011;12195;55.790;37.572;2023-08-01T00:14:09;20.97;;;6.37;;
20229;SDS011;12195;55.790;37.572;2023-08-01T00:16:42;30.97;;;6.87;;
20229;SDS011;12195;55.790;37.572;2023-08-01T00:19:25;18.02;;;5.67;;
20229;SDS011;12195;55.790;37.572;2023-08-01T00:21:57;14.95;;;6.35;;
20229;SDS011;12195;55.790;37.572;2023-08-01T00:24:59;21.23;;;7.12;;
20229;SDS011;12195;55.790;37.572;2023-08-01T00:27:44;20.05;;;6.42;;
20229;SDS011;12195;55.790;37.572;2023-08-01T00:30:27;19.45;;;6.70;;
20229;SDS011;12195;55.790;37.572;2023-08-01T00:33:00;25.82;;;6.45;;
20229;SDS011;12195;55.790;37.572;2023-08-01T00:35:44;24.43;;;6.62;;
20229;SDS011;12195;55.790;37.572;2023-08-01T00:38:31;16.80;;;6.65;;
20229;SDS011;12195;55.790;37.572;2023-08-01T00:41:04;21.12;;;6.42;;
20229;SDS011;12195;55.790;37.572;2023-08-01T00:43:46;25.68;;;6.90;;
20229;SDS011;12195;55.790;37.572;2023-08-01T00:46:32;26.65;;;7.60;;
20229;SDS011;12195;55.790;37.572;2023-08-01T00:49:17;20.20;;;6.70;;
20229;SDS011;12195;55.790;37.572;2023-08-01T00:52:00;21.65;;;5.60;;
20229;SDS011;12195;55.790;37.572;2023-08-01T00:54:42;15.70;;;6.00;;
20229;SDS011;12195;55.790;37.572;2023-08-01T00:57:15;16.45;;;6.20;;
20229;SDS011;12195;55.790;37.572;2023-08-01T01:00:01;18.00;;;6.53;;
20229;SDS011;12195;55.790;37.572;2023-08-01T01:02:35;22.22;;;6.05;;
20229;SDS011;12195;55.790;37.572;2023-08-01T01:05:19;22.82;;;6.35;;
20229;SDS011;12195;55.790;37.572;2023-08-01T01:07:54;23.12;;;7.00;;
20229;SDS011;12195;55.790;37.572;2023-08-01T01:10:39;20.17;;;5.78;;
20229;SDS011;12195;55.790;37.572;2023-08-01T01:13:11;15.65;;;5.62;;
20229;SDS011;12195;55.790;37.572;2023-08-01T01:15:44;17.95;;;6.15;;
20229;SDS011;12195;55.790;37.572;2023-08-01T01:18:17;22.35;;;6.70;;
20229;SDS011;12195;55.790;37.572;2023-08-01T01:21:01;20.72;;;7.20;;
20229;SDS011;12195;55.790;37.572;2023-08-01T01:23:35;21.30;;;6.35;;
20229;SDS011;12195;55.790;37.572;2023-08-01T01:26:19;15.08;;;6.08;;
20229;SDS011;12195;55.790;37.572;2023-08-01T01:28:53;20.82;;;6.10;;
20229;SDS011;12195;55.790;37.572;2023-08-01T01:31:36;19.60;;;6.17;;
20229;SDS011;12195;55.790;37.572;2023-08-01T01:34:10;20.40;;;6.47;;
20229;SDS011;12195;55.790;37.572;2023-08-01T01:36:53;16.20;;;5.87;;
20229;SDS011;12195;55.790;37.572;2023-08-01T01:39:37;25.65;;;7.05;;
20229;SDS011;12195;55.790;37.572;2023-08-01T01:42:10;17.55;;;5.90;;
20229;SDS011;12195;55.790;37.572;2023-08-01T01:44:55;17.90;;;6.55;;
20229;SDS011;12195;55.790;37.572;2023-08-01T01:47:39;16.37;;;6.35;;
20229;SDS011;12195;55.790;37.572;2023-08-01T01:50:12;17.73;;;5.60;;
20229;SDS011;12195;55.790;37.572;2023-08-01T01:52:55;18.07;;;5.62;;
20229;SDS011;12195;55.790;37.572;2023-08-01T01:55:40;19.30;;;5.85;;
20229;SDS011;12195;55.790;37.572;2023-08-01T01:58:13;19.32;;;6.20;;
20229;SDS011;12195;55.790;37.572;2023-08-01T02:00:57;16.37;;;6.30;;
20229;SDS011;12195;55.790;37.572;2023-08-01T02:03:30;16.93;;;5.80;;
20229;SDS011;12195;55.790;37.572;2023-08-01T02:06:14;21.35;;;5.90;;
20229;SDS011;12195;55.790;37.572;2023-08-01T02:08:47;20.02;;;6.15;;
20229;SDS011;12195;55.790;37.572;2023-08-01T02:11:30;20.85;;;6.20;;
20229;SDS011;12195;55.790;37.572;2023-08-01T02:14:13;14.28;;;6.15;;
20229;SDS011;12195;55.790;37.572;2023-08-01T02:16:46;20.92;;;5.50;;
20229;SDS011;12195;55.790;37.572;2023-08-01T02:19:29;16.87;;;6.37;;
20229;SDS011;12195;55.790;37.572;2023-08-01T02:22:02;17.57;;;6.50;;
20229;SDS011;12195;55.790;37.572;2023-08-01T02:24:47;17.32;;;6.03;;
20229;SDS011;12195;55.790;37.572;2023-08-01T02:27:19;18.45;;;5.55;;
20229;SDS011;12195;55.790;37.572;2023-08-01T02:30:02;18.67;;;6.53;;
20229;SDS011;12195;55.790;37.572;2023-08-01T02:32:46;20.05;;;6.45;;
20229;SDS011;12195;55.790;37.572;2023-08-01T02:35:19;21.00;;;5.90;;
20229;SDS011;12195;55.790;37.572;2023-08-01T02:38:05;16.77;;;5.97;;
20229;SDS011;12195;55.790;37.572;2023-08-01T02:40:38;17.65;;;5.70;;
20229;SDS011;12195;55.790;37.572;2023-08-01T02:43:25;20.75;;;6.12;;
20229;SDS011;12195;55.790;37.572;2023-08-01T02:45:57;23.87;;;6.72;;
20229;SDS011;12195;55.790;37.572;2023-08-01T02:48:32;19.40;;;5.95;;
20229;SDS011;12195;55.790;37.572;2023-08-01T02:51:17;17.98;;;6.20;;
20229;SDS011;12195;55.790;37.572;2023-08-01T02:53:50;15.23;;;5.65;;
20229;SDS011;12195;55.790;37.572;2023-08-01T02:56:34;20.52;;;6.45;;
20229;SDS011;12195;55.790;37.572;2023-08-01T02:59:10;13.35;;;6.35;;
20229;SDS011;12195;55.790;37.572;2023-08-01T03:01:55;14.18;;;6.15;;
20229;SDS011;12195;55.790;37.572;2023-08-01T03:04:28;16.25;;;6.12;;
20229;SDS011;12195;55.790;37.572;2023-08-01T03:07:14;18.90;;;7.30;;
20229;SDS011;12195;55.790;37.572;2023-08-01T03:09:47;17.50;;;6.22;;
20229;SDS011;12195;55.790;37.572;2023-08-01T03:12:30;18.77;;;6.62;;
20229;SDS011;12195;55.790;37.572;2023-08-01T03:15:03;20.72;;;6.08;;
20229;SDS011;12195;55.790;37.572;2023-08-01T03:17:38;20.35;;;6.67;;
20229;SDS011;12195;55.790;37.572;2023-08-01T03:20:22;17.23;;;6.12;;
20229;SDS011;12195;55.790;37.572;2023-08-01T03:22:55;17.48;;;6.33;;
20229;SDS011;12195;55.790;37.572;2023-08-01T03:25:40;15.00;;;5.72;;
20229;SDS011;12195;55.790;37.572;2023-08-01T03:28:13;18.42;;;6.65;;
20229;SDS011;12195;55.790;37.572;2023-08-01T03:30:57;11.38;;;5.53;;
20229;SDS011;12195;55.790;37.572;2023-08-01T03:33:42;19.45;;;5.72;;
20229;SDS011;12195;55.790;37.572;2023-08-01T03:36:15;11.97;;;5.17;;
20229;SDS011;12195;55.790;37.572;2023-08-01T03:38:58;16.48;;;5.65;;
20229;SDS011;12195;55.790;37.572;2023-08-01T03:41:31;14.38;;;5.08;;
20229;SDS011;12195;55.790;37.572;2023-08-01T03:44:18;15.43;;;5.22;;
20229;SDS011;12195;55.790;37.572;2023-08-01T03:47:01;10.95;;;5.40;;
20229;SDS011;12195;55.790;37.572;2023-08-01T03:49:45;15.05;;;5.55;;
20229;SDS011;12195;55.790;37.572;2023-08-01T03:52:19;12.47;;;5.07;;
20229;SDS011;12195;55.790;37.572;2023-08-01T03:54:53;12.27;;;5.40;;
20229;SDS011;12195;55.790;37.572;2023-08-01T03:57:28;11.18;;;5.85;;
20229;SDS011;12195;55.790;37.572;2023-08-01T04:00:11;9.20;;;5.20;;
20229;SDS011;12195;55.790;37.572;2023-08-01T04:02:49;8.63;;;5.17;;
20229;SDS011;12195;55.790;37.572;2023-08-01T04:05:34;11.00;;;5.65;;
20229;SDS011;12195;55.790;37.572;2023-08-01T04:08:19;14.18;;;5.10;;
20229;SDS011;12195;55.790;37.572;2023-08-01T04:10:53;13.98;;;5.83;;
20229;SDS011;12195;55.790;37.572;2023-08-01T04:13:36;17.23;;;6.53;;
20229;SDS011;12195;55.790;37.572;2023-08-01T04:16:19;15.00;;;5.37;;
20229;SDS011;12195;55.790;37.572;2023-08-01T04:19:02;9.75;;;5.00;;
20229;SDS011;12195;55.790;37.572;2023-08-01T04:21:36;12.33;;;5.80;;
20229;SDS011;12195;55.790;37.572;2023-08-01T04:24:19;16.05;;;5.55;;
20229;SDS011;12195;55.790;37.572;2023-08-01T04:27:06;9.73;;;5.20;;
20229;SDS011;12195;55.790;37.572;2023-08-01T04:29:40;11.97;;;5.37;;
20229;SDS011;12195;55.790;37.572;2023-08-01T04:32:25;14.20;;;5.10;;
20229;SDS011;12195;55.790;37.572;2023-08-01T04:34:59;16.23;;;6.17;;
20229;SDS011;12195;55.790;37.572;2023-08-01T04:37:44;11.20;;;5.40;;
20229;SDS011;12195;55.790;37.572;2023-08-01T04:40:17;9.58;;;4.90;;
20229;SDS011;12195;55.790;37.572;2023-08-01T04:43:01;13.48;;;5.08;;
20229;SDS011;12195;55.790;37.572;2023-08-01T04:45:35;12.47;;;4.75;;
20229;SDS011;12195;55.790;37.572;2023-08-01T04:48:18;15.35;;;5.12;;
20229;SDS011;12195;55.790;37.572;2023-08-01T04:51:00;11.55;;;5.17;;
20229;SDS011;12195;55.790;37.572;2023-08-01T04:53:33;12.78;;;5.17;;
20229;SDS011;12195;55.790;37.572;2023-08-01T04:56:19;12.05;;;5.33;;
20229;SDS011;12195;55.790;37.572;2023-08-01T04:58:52;16.17;;;5.25;;
20229;SDS011;12195;55.790;37.572;2023-08-01T05:01:36;14.00;;;6.28;;
20229;SDS011;12195;55.790;37.572;2023-08-01T05:04:10;16.85;;;4.58;;
20229;SDS011;12195;55.790;37.572;2023-08-01T05:06:56;12.78;;;5.78;;
20229;SDS011;12195;55.790;37.572;2023-08-01T05:09:29;20.45;;;5.55;;
20229;SDS011;12195;55.790;37.572;2023-08-01T05:12:14;10.53;;;4.92;;
20229;SDS011;12195;55.790;37.572;2023-08-01T05:14:48;7.05;;;3.52;;
20229;SDS011;12195;55.790;37.572;2023-08-01T05:17:32;11.55;;;3.67;;
20229;SDS011;12195;55.790;37.572;2023-08-01T05:20:17;11.97;;;3.52;;
20229;SDS011;12195;55.790;37.572;2023-08-01T05:22:50;6.37;;;3.80;;
20229;SDS011;12195;55.790;37.572;2023-08-01T05:25:36;9.95;;;4.20;;
20229;SDS011;12195;55.790;37.572;2023-08-01T05:28:11;7.12;;;3.12;;
20229;SDS011;12195;55.790;37.572;2023-08-01T05:30:56;10.45;;;4.60;;
20229;SDS011;12195;55.790;37.572;2023-08-01T05:33:40;14.03;;;4.17;;
20229;SDS011;12195;55.790;37.572;2023-08-01T05:36:26;11.20;;;3.37;;
20229;SDS011;12195;55.790;37.572;2023-08-01T05:39:00;6.62;;;3.47;;
20229;SDS011;12195;55.790;37.572;2023-08-01T05:41:46;6.40;;;3.40;;
20229;SDS011;12195;55.790;37.572;2023-08-01T05:44:19;8.65;;;3.08;;
20229;SDS011;12195;55.790;37.572;2023-08-01T05:47:04;4.42;;;3.15;;
20229;SDS011;12195;55.790;37.572;2023-08-01T05:49:38;6.17;;;2.87;;
20229;SDS011;12195;55.790;37.572;2023-08-01T05:52:22;6.33;;;2.90;;
20229;SDS011;12195;55.790;37.572;2023-08-01T05:54:57;7.78;;;4.10;;
20229;SDS011;12195;55.790;37.572;2023-08-01T05:57:42;7.80;;;4.30;;
20229;SDS011;12195;55.790;37.572;2023-08-01T06:00:16;12.88;;;5.40;;
20229;SDS011;12195;55.790;37.572;2023-08-01T06:03:01;9.70;;;4.40;;
20229;SDS011;12195;55.790;37.572;2023-08-01T06:05:35;9.30;;;4.55;;
20229;SDS011;12195;55.790;37.572;2023-08-01T06:08:21;9.38;;;4.37;;
20229;SDS011;12195;55.790;37.572;2023-08-01T06:10:55;9.25;;;3.75;;
20229;SDS011;12195;55.790;37.572;2023-08-01T06:13:40;7.65;;;3.50;;
20229;SDS011;12195;55.790;37.572;2023-08-01T06:16:23;6.03;;;2.83;;
20229;SDS011;12195;55.790;37.572;2023-08-01T06:18:58;8.58;;;2.92;;
20229;SDS011;12195;55.790;37.572;2023-08-01T06:21:42;5.67;;;2.75;;
20229;SDS011;12195;55.790;37.572;2023-08-01T06:24:26;10.40;;;3.27;;
20229;SDS011;12195;55.790;37.572;2023-08-01T06:27:11;5.80;;;3.67;;
20229;SDS011;12195;55.790;37.572;2023-08-01T06:29:56;10.18;;;3.45;;
20229;SDS011;12195;55.790;37.572;2023-08-01T06:32:31;4.95;;;2.92;;
20229;SDS011;12195;55.790;37.572;2023-08-01T06:35:17;8.83;;;3.70;;
20229;SDS011;12195;55.790;37.572;2023-08-01T06:37:52;6.22;;;2.98;;
20229;SDS011;12195;55.790;37.572;2023-08-01T06:40:35;6.80;;;2.92;;
20229;SDS011;12195;55.790;37.572;2023-08-01T06:43:20;10.93;;;3.70;;
20229;SDS011;12195;55.790;37.572;2023-08-01T06:45:55;8.78;;;3.67;;
20229;SDS011;12195;55.790;37.572;2023-08-01T06:48:38;10.30;;;3.70;;
20229;SDS011;12195;55.790;37.572;2023-08-01T06:51:13;8.43;;;2.70;;
20229;SDS011;12195;55.790;37.572;2023-08-01T06:53:57;4.78;;;2.95;;
20229;SDS011;12195;55.790;37.572;2023-08-01T06:56:30;3.00;;;2.17;;
20229;SDS011;12195;55.790;37.572;2023-08-01T06:59:16;8.78;;;3.00;;
20229;SDS011;12195;55.790;37.572;2023-08-01T07:02:00;3.90;;;2.40;;
20229;SDS011;12195;55.790;37.572;2023-08-01T07:04:45;3.90;;;2.27;;
20229;SDS011;12195;55.790;37.572;2023-08-01T07:07:18;5.08;;;2.37;;
20229;SDS011;12195;55.790;37.572;2023-08-01T07:10:05;7.57;;;2.87;;
20229;SDS011;12195;55.790;37.572;2023-08-01T07:12:48;7.70;;;2.55;;
20229;SDS011;12195;55.790;37.572;2023-08-01T07:15:21;6.12;;;2.95;;
20229;SDS011;12195;55.790;37.572;2023-08-01T07:18:05;5.42;;;2.87;;
20229;SDS011;12195;55.790;37.572;2023-08-01T07:20:37;8.53;;;2.58;;
20229;SDS011;12195;55.790;37.572;2023-08-01T07:23:21;4.40;;;2.55;;
20229;SDS011;12195;55.790;37.572;2023-08-01T07:26:04;4.37;;;1.95;;
20229;SDS011;12195;55.790;37.572;2023-08-01T07:28:37;4.62;;;1.98;;
20229;SDS011;12195;55.790;37.572;2023-08-01T07:31:21;5.55;;;2.10;;
20229;SDS011;12195;55.790;37.572;2023-08-01T07:33:54;4.70;;;2.22;;
20229;SDS011;12195;55.790;37.572;2023-08-01T07:36:37;3.30;;;1.80;;
20229;SDS011;12195;55.790;37.572;2023-08-01T07:39:20;6.35;;;2.65;;
20229;SDS011;12195;55.790;37.572;2023-08-01T07:41:54;5.42;;;2.30;;
20229;SDS011;12195;55.790;37.572;2023-08-01T07:44:38;3.55;;;2.00;;
20229;SDS011;12195;55.790;37.572;2023-08-01T07:47:23;9.00;;;2.55;;
20229;SDS011;12195;55.790;37.572;2023-08-01T07:49:56;7.67;;;2.70;;
20229;SDS011;12195;55.790;37.572;2023-08-01T07:52:38;5.67;;;1.70;;
20229;SDS011;12195;55.790;37.572;2023-08-01T07:55:12;3.02;;;1.60;;
20229;SDS011;12195;55.790;37.572;2023-08-01T07:57:45;5.93;;;2.53;;
20229;SDS011;12195;55.790;37.572;2023-08-01T08:00:30;6.12;;;2.60;;
20229;SDS011;12195;55.790;37.572;2023-08-01T08:03:06;7.83;;;2.37;;
20229;SDS011;12195;55.790;37.572;2023-08-01T08:05:49;5.08;;;2.27;;
20229;SDS011;12195;55.790;37.572;2023-08-01T08:08:34;4.83;;;1.82;;
20229;SDS011;12195;55.790;37.572;2023-08-01T08:11:20;8.03;;;2.52;;
20229;SDS011;12195;55.790;37.572;2023-08-01T08:13:54;6.20;;;2.67;;
20229;SDS011;12195;55.790;37.572;2023-08-01T08:16:39;4.00;;;2.35;;
20229;SDS011;12195;55.790;37.572;2023-08-01T08:19:22;3.87;;;2.60;;
20229;SDS011;12195;55.790;37.572;2023-08-01T08:21:56;6.25;;;2.67;;
20229;SDS011;12195;55.790;37.572;2023-08-01T08:24:38;7.33;;;2.87;;
20229;SDS011;12195;55.790;37.572;2023-08-01T08:27:12;6.87;;;2.65;;
20229;SDS011;12195;55.790;37.572;2023-08-01T08:29:56;7.08;;;2.60;;
20229;SDS011;12195;55.790;37.572;2023-08-01T08:32:40;6.65;;;2.40;;
20229;SDS011;12195;55.790;37.572;2023-08-01T08:35:15;7.55;;;2.30;;
20229;SDS011;12195;55.790;37.572;2023-08-01T08:37:58;6.00;;;2.52;;
20229;SDS011;12195;55.790;37.572;2023-08-01T08:40:31;6.58;;;2.75;;
20229;SDS011;12195;55.790;37.572;2023-08-01T08:43:05;6.78;;;2.25;;
20229;SDS011;12195;55.790;37.572;2023-08-01T08:45:51;4.95;;;2.55;;
20229;SDS011;12195;55.790;37.572;2023-08-01T08:48:27;7.60;;;2.85;;
20229;SDS011;12195;55.790;37.572;2023-08-01T08:51:11;3.95;;;2.45;;
20229;SDS011;12195;55.790;37.572;2023-08-01T08:53:45;6.35;;;2.55;;
20229;SDS011;12195;55.790;37.572;2023-08-01T08:56:30;11.75;;;3.83;;
20229;SDS011;12195;55.790;37.572;2023-08-01T08:59:04;6.05;;;3.10;;
20229;SDS011;12195;55.790;37.572;2023-08-01T09:01:48;6.28;;;2.40;;
20229;SDS011;12195;55.790;37.572;2023-08-01T09:04:21;8.50;;;2.67;;
20229;SDS011;12195;55.790;37.572;2023-08-01T09:07:08;6.87;;;2.90;;
20229;SDS011;12195;55.790;37.572;2023-08-01T09:09:56;6.72;;;2.60;;
20229;SDS011;12195;55.790;37.572;2023-08-01T09:12:42;9.25;;;2.90;;
20229;SDS011;12195;55.790;37.572;2023-08-01T09:15:27;6.35;;;3.22;;
20229;SDS011;12195;55.790;37.572;2023-08-01T09:18:01;4.45;;;2.50;;
20229;SDS011;12195;55.790;37.572;2023-08-01T09:20:47;7.03;;;3.00;;
20229;SDS011;12195;55.790;37.572;2023-08-01T09:23:31;8.08;;;3.50;;
20229;SDS011;12195;55.790;37.572;2023-08-01T09:26:14;8.65;;;2.47;;
20229;SDS011;12195;55.790;37.572;2023-08-01T09:29:02;8.53;;;3.02;;
20229;SDS011;12195;55.790;37.572;2023-08-01T09:31:49;3.85;;;2.05;;
20229;SDS011;12195;55.790;37.572;2023-08-01T09:34:31;12.00;;;3.10;;
20229;SDS011;12195;55.790;37.572;2023-08-01T09:37:04;8.38;;;2.83;;
20229;SDS011;12195;55.790;37.572;2023-08-01T09:39:52;4.20;;;2.42;;
20229;SDS011;12195;55.790;37.572;2023-08-01T09:42:26;4.03;;;2.47;;
20229;SDS011;12195;55.790;37.572;2023-08-01T09:45:16;5.08;;;2.27;;
20229;SDS011;12195;55.790;37.572;2023-08-01T09:47:49;5.08;;;2.50;;
20229;SDS011;12195;55.790;37.572;2023-08-01T09:58:13;6.10;;;2.55;;
20229;SDS011;12195;55.790;37.572;2023-08-01T10:01:15;8.80;;;3.27;;
20229;SDS011;12195;55.790;37.572;2023-08-01T10:08:02;10.10;;;3.77;;
20229;SDS011;12195;55.790;37.572;2023-08-01T10:11:21;7.55;;;2.90;;
20229;SDS011;12195;55.790;37.572;2023-08-01T10:14:07;6.35;;;2.15;;
20229;SDS011;12195;55.790;37.572;2023-08-01T10:16:53;6.65;;;2.92;;
20229;SDS011;12195;55.790;37.572;2023-08-01T10:19:29;7.05;;;3.37;;
20229;SDS011;12195;55.790;37.572;2023-08-01T10:22:14;7.03;;;2.80;;
20229;SDS011;12195;55.790;37.572;2023-08-01T10:24:48;7.35;;;2.77;;
20229;SDS011;12195;55.790;37.572;2023-08-01T10:27:32;4.35;;;2.52;;
20229;SDS011;12195;55.790;37.572;2023-08-01T10:30:06;5.58;;;3.02;;
20229;SDS011;12195;55.790;37.572;2023-08-01T10:32:54;11.93;;;3.95;;
20229;SDS011;12195;55.790;37.572;2023-08-01T10:35:32;6.03;;;3.45;;
20229;SDS011;12195;55.790;37.572;2023-08-01T10:38:15;43.92;;;38.23;;
20229;SDS011;12195;55.790;37.572;2023-08-01T10:40:48;60.00;;;47.05;;
20229;SDS011;12195;55.790;37.572;2023-08-01T10:43:33;3.98;;;2.27;;
20229;SDS011;12195;55.790;37.572;2023-08-01T10:46:07;4.90;;;3.40;;
20229;SDS011;12195;55.790;37.572;2023-08-01T10:48:52;7.30;;;2.75;;
20229;SDS011;12195;55.790;37.572;2023-08-01T10:51:37;4.97;;;3.27;;
20229;SDS011;12195;55.790;37.572;2023-08-01T10:54:20;9.10;;;3.35;;
20229;SDS011;12195;55.790;37.572;2023-08-01T10:57:06;6.47;;;3.40;;
20229;SDS011;12195;55.790;37.572;2023-08-01T10:59:49;6.12;;;2.60;;
20229;SDS011;12195;55.790;37.572;2023-08-01T11:02:38;6.83;;;2.95;;
20229;SDS011;12195;55.790;37.572;2023-08-01T11:05:11;4.60;;;2.98;;
20229;SDS011;12195;55.790;37.572;2023-08-01T11:07:57;12.60;;;3.30;;
20229;SDS011;12195;55.790;37.572;2023-08-01T11:10:32;9.23;;;3.83;;
20229;SDS011;12195;55.790;37.572;2023-08-01T11:13:17;4.85;;;3.20;;
20229;SDS011;12195;55.790;37.572;2023-08-01T11:16:02;6.58;;;3.72;;
20229;SDS011;12195;55.790;37.572;2023-08-01T11:18:43;6.87;;;3.15;;
20229;SDS011;12195;55.790;37.572;2023-08-01T11:21:27;14.03;;;3.45;;
20229;SDS011;12195;55.790;37.572;2023-08-01T11:24:05;4.60;;;2.17;;
20229;SDS011;12195;55.790;37.572;2023-08-01T11:26:53;4.28;;;2.35;;
20229;SDS011;12195;55.790;37.572;2023-08-01T11:29:26;8.10;;;2.70;;
20229;SDS011;12195;55.790;37.572;2023-08-01T11:32:11;6.42;;;2.55;;
20229;SDS011;12195;55.790;37.572;2023-08-01T11:34:45;7.83;;;2.47;;
20229;SDS011;12195;55.790;37.572;2023-08-01T11:37:31;5.58;;;2.30;;
20229;SDS011;12195;55.790;37.572;2023-08-01T11:40:06;8.30;;;2.75;;
20229;SDS011;12195;55.790;37.572;2023-08-01T11:42:56;6.67;;;2.98;;
20229;SDS011;12195;55.790;37.572;2023-08-01T11:45:29;9.40;;;2.85;;
20229;SDS011;12195;55.790;37.572;2023-08-01T11:48:14;8.15;;;3.25;;
20229;SDS011;12195;55.790;37.572;2023-08-01T11:50:47;10.23;;;3.02;;
20229;SDS011;12195;55.790;37.572;2023-08-01T11:53:31;5.08;;;2.42;;
20229;SDS011;12195;55.790;37.572;2023-08-01T11:56:06;8.23;;;2.62;;
20229;SDS011;12195;55.790;37.572;2023-08-01T11:58:50;7.62;;;3.37;;
20229;SDS011;12195;55.790;37.572;2023-08-01T12:01:23;7.55;;;2.30;;
20229;SDS011;12195;55.790;37.572;2023-08-01T12:04:08;7.05;;;3.00;;
20229;SDS011;12195;55.790;37.572;2023-08-01T12:06:52;6.03;;;2.50;;
20229;SDS011;12195;55.790;37.572;2023-08-01T12:09:26;5.37;;;2.17;;
20229;SDS011;12195;55.790;37.572;2023-08-01T12:12:12;12.85;;;2.90;;
20229;SDS011;12195;55.790;37.572;2023-08-01T12:16:45;6.83;;;2.27;;
20229;SDS011;12195;55.790;37.572;2023-08-01T12:19:19;7.25;;;2.30;;
20229;SDS011;12195;55.790;37.572;2023-08-01T12:22:03;6.05;;;2.72;;
20229;SDS011;12195;55.790;37.572;2023-08-01T12:24:37;3.67;;;2.12;;
20229;SDS011;12195;55.790;37.572;2023-08-01T12:27:22;5.28;;;2.55;;
20229;SDS011;12195;55.790;37.572;2023-08-01T12:30:09;2.83;;;1.77;;
20229;SDS011;12195;55.790;37.572;2023-08-01T12:32:42;8.15;;;2.20;;
20229;SDS011;12195;55.790;37.572;2023-08-01T12:35:26;6.90;;;2.30;;
20229;SDS011;12195;55.790;37.572;2023-08-01T12:38:09;4.67;;;2.45;;
20229;SDS011;12195;55.790;37.572;2023-08-01T12:40:43;10.78;;;3.00;;
20229;SDS011;12195;55.790;37.572;2023-08-01T12:43:27;6.37;;;2.15;;
20229;SDS011;12195;55.790;37.572;2023-08-01T12:46:14;5.65;;;2.30;;
20229;SDS011;12195;55.790;37.572;2023-08-01T12:51:20;4.17;;;2.45;;
20229;SDS011;12195;55.790;37.572;2023-08-01T12:54:06;10.25;;;2.83;;
20229;SDS011;12195;55.790;37.572;2023-08-01T12:56:39;8.45;;;2.17;;
20229;SDS011;12195;55.790;37.572;2023-08-01T12:59:25;4.25;;;2.42;;
20229;SDS011;12195;55.790;37.572;2023-08-01T13:01:59;5.92;;;2.45;;
20229;SDS011;12195;55.790;37.572;2023-08-01T13:04:44;6.37;;;2.15;;
20229;SDS011;12195;55.790;37.572;2023-08-01T13:07:28;4.03;;;2.67;;
20229;SDS011;12195;55.790;37.572;2023-08-01T13:10:15;7.20;;;2.90;;
20229;SDS011;12195;55.790;37.572;2023-08-01T13:15:21;4.17;;;2.05;;
20229;SDS011;12195;55.790;37.572;2023-08-01T13:18:07;2.20;;;1.80;;
20229;SDS011;12195;55.790;37.572;2023-08-01T13:20:40;5.08;;;2.77;;
20229;SDS011;12195;55.790;37.572;2023-08-01T13:23:25;8.95;;;2.40;;
20229;SDS011;12195;55.790;37.572;2023-08-01T13:25:58;5.97;;;4.42;;
20229;SDS011;12195;55.790;37.572;2023-08-01T13:28:44;6.15;;;3.27;;
20229;SDS011;12195;55.790;37.572;2023-08-01T13:31:18;5.28;;;3.30;;
20229;SDS011;12195;55.790;37.572;2023-08-01T13:34:03;7.87;;;4.12;;
20229;SDS011;12195;55.790;37.572;2023-08-01T13:36:35;6.72;;;3.55;;
20229;SDS011;12195;55.790;37.572;2023-08-01T13:39:19;6.47;;;3.65;;
20229;SDS011;12195;55.790;37.572;2023-08-01T13:41:52;12.10;;;3.70;;
20229;SDS011;12195;55.790;37.572;2023-08-01T13:44:35;6.90;;;2.92;;
20229;SDS011;12195;55.790;37.572;2023-08-01T13:47:07;7.97;;;2.60;;
20229;SDS011;12195;55.790;37.572;2023-08-01T13:49:52;11.28;;;3.45;;
20229;SDS011;12195;55.790;37.572;2023-08-01T13:52:25;6.90;;;3.92;;
20229;SDS011;12195;55.790;37.572;2023-08-01T13:55:09;5.40;;;2.40;;
20229;SDS011;12195;55.790;37.572;2023-08-01T13:57:42;9.63;;;3.40;;
20229;SDS011;12195;55.790;37.572;2023-08-01T14:00:29;7.45;;;3.15;;
20229;SDS011;12195;55.790;37.572;2023-08-01T14:06:55;6.78;;;2.60;;
20229;SDS011;12195;55.790;37.572;2023-08-01T14:09:28;11.12;;;3.20;;
20229;SDS011;12195;55.790;37.572;2023-08-01T14:12:03;5.15;;;2.47;;
20229;SDS011;12195;55.790;37.572;2023-08-01T14:14:36;9.53;;;3.33;;
20229;SDS011;12195;55.790;37.572;2023-08-01T14:17:26;3.17;;;1.77;;
20229;SDS011;12195;55.790;37.572;2023-08-01T14:20:09;6.97;;;2.92;;
20229;SDS011;12195;55.790;37.572;2023-08-01T14:22:43;7.80;;;2.20;;
20229;SDS011;12195;55.790;37.572;2023-08-01T14:25:29;3.87;;;2.25;;
20229;SDS011;12195;55.790;37.572;2023-08-01T14:28:15;3.65;;;1.80;;
20229;SDS011;12195;55.790;37.572;2023-08-01T14:30:49;7.83;;;2.62;;
20229;SDS011;12195;55.790;37.572;2023-08-01T14:33:32;2.37;;;1.80;;
20229;SDS011;12195;55.790;37.572;2023-08-01T14:36:11;8.05;;;2.50;;
20229;SDS011;12195;55.790;37.572;2023-08-01T14:38:52;4.10;;;2.10;;
20229;SDS011;12195;55.790;37.572;2023-08-01T14:41:29;6.40;;;2.00;;
20229;SDS011;12195;55.790;37.572;2023-08-01T14:44:14;3.42;;;2.37;;
20229;SDS011;12195;55.790;37.572;2023-08-01T14:46:47;5.62;;;2.25;;
20229;SDS011;12195;55.790;37.572;2023-08-01T14:49:30;8.08;;;2.60;;
20229;SDS011;12195;55.790;37.572;2023-08-01T14:52:03;7.67;;;2.75;;
20229;SDS011;12195;55.790;37.572;2023-08-01T14:54:48;5.37;;;2.20;;
20229;SDS011;12195;55.790;37.572;2023-08-01T14:57:22;5.72;;;2.40;;
20229;SDS011;12195;55.790;37.572;2023-08-01T15:00:06;7.17;;;2.60;;
20229;SDS011;12195;55.790;37.572;2023-08-01T15:02:41;3.02;;;1.98;;
20229;SDS011;12195;55.790;37.572;2023-08-01T15:05:26;8.10;;;2.25;;
20229;SDS011;12195;55.790;37.572;2023-08-01T15:08:13;6.40;;;2.62;;
20229;SDS011;12195;55.790;37.572;2023-08-01T15:10:47;5.62;;;2.95;;
20229;SDS011;12195;55.790;37.572;2023-08-01T15:13:33;7.55;;;2.90;;
20229;SDS011;12195;55.790;37.572;2023-08-01T15:16:19;4.90;;;2.30;;
20229;SDS011;12195;55.790;37.572;2023-08-01T15:18:53;9.10;;;2.85;;
20229;SDS011;12195;55.790;37.572;2023-08-01T15:21:36;4.35;;;1.95;;
20229;SDS011;12195;55.790;37.572;2023-08-01T15:24:19;6.37;;;2.92;;
20229;SDS011;12195;55.790;37.572;2023-08-01T15:27:03;7.15;;;2.27;;
20229;SDS011;12195;55.790;37.572;2023-08-01T15:29:37;6.12;;;2.42;;
20229;SDS011;12195;55.790;37.572;2023-08-01T15:32:23;4.47;;;2.37;;
20229;SDS011;12195;55.790;37.572;2023-08-01T15:34:56;7.58;;;3.02;;
20229;SDS011;12195;55.790;37.572;2023-08-01T15:37:41;6.47;;;2.67;;
20229;SDS011;12195;55.790;37.572;2023-08-01T15:40:15;6.62;;;2.83;;
20229;SDS011;12195;55.790;37.572;2023-08-01T15:42:59;8.53;;;2.87;;
20229;SDS011;12195;55.790;37.572;2023-08-01T15:45:44;11.97;;;3.22;;
20229;SDS011;12195;55.790;37.572;2023-08-01T15:48:31;5.80;;;2.70;;
20229;SDS011;12195;55.790;37.572;2023-08-01T15:53:37;7.20;;;3.60;;
20229;SDS011;12195;55.790;37.572;2023-08-01T15:56:22;7.85;;;2.95;;
20229;SDS011;12195;55.790;37.572;2023-08-01T15:58:55;6.03;;;2.98;;
20229;SDS011;12195;55.790;37.572;2023-08-01T16:01:39;7.85;;;3.40;;
20229;SDS011;12195;55.790;37.572;2023-08-01T16:06:58;8.98;;;2.87;;
20229;SDS011;12195;55.790;37.572;2023-08-01T16:09:31;7.05;;;2.87;;
20229;SDS011;12195;55.790;37.572;2023-08-01T16:12:15;9.03;;;3.33;;